首页
METAR-TAF:

METAR-TAF

机场 :

Pella Municipal Airport

Pella, 艾奥瓦州, 美国

纬度: 41-24N, 经度: 092-56W, 海拔: 270米

当前天气观测

该预报发布于27分钟前的18:15 UTC
风速6节,风向西
温度 30°C
湿度 52%
气压 1009 hPa
能見度: 16.1公里
天空无云

METAR: KPEA 041815Z AUTO 26006KT 10SM CLR 30/19 A2980 RMK AO2 T03040186

时间: 13:42 (18:42 UTC)


TAF: 丢失

超过4000个机场的气象观测和天气预报(METAR&TAF报告)。

可查询的气象台以黄色和红色小点在地图上表示。

将鼠标移到小点上方,可查看气象台名称。

然后点击查看天气观测和预报。

如需切换地图:点击带黑十字的绿色按钮放大地图;点击带横线的绿色按钮缩小地图;或者点击绿色箭头查看邻近地区的地图。


METAR-TAF: